createdAt,value
2019-05-11T00:01:11.710Z,16.60
2019-05-11T00:03:39.200Z,16.60
2019-05-11T00:06:06.664Z,16.57
2019-05-11T00:08:34.170Z,16.54
2019-05-11T00:11:01.642Z,16.53
2019-05-11T00:13:29.146Z,16.51
2019-05-11T00:15:56.626Z,16.51
2019-05-11T00:18:24.105Z,16.49
2019-05-11T00:20:51.645Z,16.48
2019-05-11T00:23:19.170Z,16.47
2019-05-11T00:25:46.675Z,16.46
2019-05-11T00:28:14.179Z,16.43
2019-05-11T00:30:41.665Z,16.41
2019-05-11T00:33:09.151Z,16.41
2019-05-11T00:35:36.627Z,16.40
2019-05-11T00:38:04.093Z,16.38
2019-05-11T00:40:31.584Z,16.26
2019-05-11T00:42:59.051Z,16.36
2019-05-11T00:45:26.594Z,16.36
2019-05-11T00:47:54.079Z,16.32
2019-05-11T00:50:36.779Z,16.30
2019-05-11T00:52:50.929Z,16.33
2019-05-11T00:55:18.406Z,16.31
2019-05-11T00:57:45.888Z,16.30
2019-05-11T01:00:13.355Z,16.29
2019-05-11T01:02:40.857Z,16.27
2019-05-11T01:05:08.321Z,16.27
2019-05-11T01:07:35.802Z,16.21
2019-05-11T01:10:03.964Z,16.21
2019-05-11T01:12:31.422Z,16.20
2019-05-11T01:14:58.897Z,16.19
2019-05-11T01:17:26.353Z,16.18
2019-05-11T01:19:53.830Z,16.16
2019-05-11T01:22:21.265Z,16.14
2019-05-11T01:24:48.759Z,16.14
2019-05-11T01:27:16.221Z,16.13
2019-05-11T01:29:44.192Z,16.11
2019-05-11T01:32:11.695Z,16.11
2019-05-11T01:34:39.163Z,16.09
2019-05-11T01:37:06.658Z,16.08
2019-05-11T01:39:34.157Z,16.05
2019-05-11T01:42:01.649Z,16.05
2019-05-11T01:44:29.146Z,16.04
2019-05-11T01:46:56.614Z,16.01
2019-05-11T01:49:24.074Z,16.02
2019-05-11T01:51:51.564Z,15.95
2019-05-11T01:54:19.056Z,15.95
2019-05-11T01:56:46.559Z,15.98
2019-05-11T01:59:14.055Z,15.96
2019-05-11T02:01:41.510Z,15.94
2019-05-11T02:04:08.957Z,15.93
2019-05-11T02:06:36.450Z,15.94
2019-05-11T02:09:05.465Z,15.91
2019-05-11T02:11:33.133Z,15.91
2019-05-11T02:14:00.617Z,15.87
2019-05-11T02:16:28.047Z,15.87
2019-05-11T02:18:55.547Z,15.87
2019-05-11T02:21:23.019Z,15.87
2019-05-11T02:23:50.491Z,15.85
2019-05-11T02:26:17.952Z,15.83
2019-05-11T02:28:45.681Z,15.83
2019-05-11T02:31:13.137Z,15.82
2019-05-11T02:33:40.699Z,15.80
2019-05-11T02:36:08.149Z,15.76
2019-05-11T02:38:35.645Z,15.79
2019-05-11T02:41:03.188Z,15.77
2019-05-11T02:43:30.693Z,15.77
2019-05-11T02:45:58.165Z,15.75
2019-05-11T02:48:25.641Z,15.74
2019-05-11T02:50:53.141Z,15.74
2019-05-11T02:53:20.612Z,15.73
2019-05-11T02:55:48.297Z,15.73
2019-05-11T02:58:15.884Z,15.68
2019-05-11T03:00:43.951Z,15.68
2019-05-11T03:03:11.438Z,15.68
2019-05-11T03:05:38.998Z,15.65
2019-05-11T03:08:06.465Z,15.66
2019-05-11T03:10:33.912Z,15.62
2019-05-11T03:13:01.419Z,15.64
2019-05-11T03:15:29.099Z,15.64
2019-05-11T03:17:56.609Z,15.63
2019-05-11T03:20:24.055Z,15.61
2019-05-11T03:22:51.559Z,15.61
2019-05-11T03:25:19.017Z,15.61
2019-05-11T03:27:46.526Z,15.59
2019-05-11T03:30:14.036Z,15.58
2019-05-11T03:32:41.543Z,15.58
2019-05-11T03:35:09.013Z,15.53
2019-05-11T03:37:36.495Z,15.56
2019-05-11T03:40:04.192Z,15.56
2019-05-11T03:42:31.652Z,15.56
2019-05-11T03:44:59.245Z,15.54
2019-05-11T03:47:26.769Z,15.52
2019-05-11T03:49:54.289Z,15.50
2019-05-11T03:52:21.771Z,15.52
2019-05-11T03:54:49.255Z,15.51
2019-05-11T03:57:16.716Z,15.51
2019-05-11T03:59:44.605Z,15.51
2019-05-11T04:02:15.975Z,15.50
2019-05-11T04:04:43.450Z,15.50
2019-05-11T04:07:10.907Z,15.49
2019-05-11T04:09:38.732Z,15.45
2019-05-11T04:12:06.198Z,15.45
2019-05-11T04:14:34.298Z,15.41
2019-05-11T04:17:01.905Z,15.47
2019-05-11T04:19:29.347Z,15.47
2019-05-11T04:21:56.947Z,15.48
2019-05-11T04:24:24.420Z,15.43
2019-05-11T04:26:51.891Z,15.49
2019-05-11T04:29:19.657Z,15.49
2019-05-11T04:31:47.132Z,15.49
2019-05-11T04:34:14.641Z,15.46
2019-05-11T04:36:42.249Z,15.47
2019-05-11T04:39:09.703Z,15.49
2019-05-11T04:41:37.526Z,15.52
2019-05-11T04:44:05.040Z,15.52
2019-05-11T04:46:32.498Z,15.55
2019-05-11T04:49:00.020Z,15.55
2019-05-11T04:51:27.469Z,15.55
2019-05-11T04:53:54.971Z,15.53
2019-05-11T04:56:22.407Z,15.55
2019-05-11T04:58:49.893Z,15.55
2019-05-11T05:01:17.355Z,15.60
2019-05-11T05:03:47.364Z,15.60
2019-05-11T05:06:23.968Z,15.61
2019-05-11T05:08:43.648Z,15.62
2019-05-11T05:11:11.147Z,15.62
2019-05-11T05:13:38.639Z,15.68
2019-05-11T05:16:06.105Z,15.68
2019-05-11T05:18:33.614Z,15.68
2019-05-11T05:21:01.079Z,15.67
2019-05-11T05:23:28.583Z,15.69
2019-05-11T05:25:56.070Z,15.72
2019-05-11T05:28:23.526Z,15.77
2019-05-11T05:30:51.027Z,15.77
2019-05-11T05:33:18.520Z,15.78
2019-05-11T05:35:46.009Z,15.79
2019-05-11T05:38:13.473Z,15.84
2019-05-11T05:40:40.963Z,15.85
2019-05-11T05:43:08.549Z,15.88
2019-05-11T05:45:35.990Z,15.89
2019-05-11T05:48:03.510Z,15.89
2019-05-11T05:50:31.001Z,15.92
2019-05-11T05:52:58.471Z,15.95
2019-05-11T05:55:25.950Z,15.98
2019-05-11T05:57:53.446Z,16.00
2019-05-11T06:00:20.911Z,16.01
2019-05-11T06:02:48.409Z,16.04
2019-05-11T06:05:15.887Z,16.06
2019-05-11T06:07:43.380Z,16.06
2019-05-11T06:10:11.241Z,16.10
2019-05-11T06:12:38.716Z,16.12
2019-05-11T06:15:06.183Z,16.14
2019-05-11T06:17:33.674Z,16.15
2019-05-11T06:20:01.196Z,16.16
2019-05-11T06:22:28.722Z,16.20
2019-05-11T06:24:56.200Z,16.21
2019-05-11T06:27:23.670Z,16.25
2019-05-11T06:29:51.234Z,16.26
2019-05-11T06:32:18.751Z,16.28
2019-05-11T06:34:46.287Z,16.30
2019-05-11T06:37:13.746Z,16.32
2019-05-11T06:39:41.252Z,16.34
2019-05-11T06:42:08.698Z,16.37
2019-05-11T06:44:36.146Z,16.37
2019-05-11T06:47:03.665Z,16.39
2019-05-11T06:49:31.126Z,16.42
2019-05-11T06:51:58.840Z,16.42
2019-05-11T06:54:26.309Z,16.45
2019-05-11T06:56:55.437Z,16.47
2019-05-11T06:59:22.873Z,16.48
2019-05-11T07:01:50.353Z,16.50
2019-05-11T07:04:17.792Z,16.55
2019-05-11T07:06:45.287Z,16.57
2019-05-11T07:09:12.801Z,16.58
2019-05-11T07:11:40.351Z,16.60
2019-05-11T07:14:20.152Z,16.61
2019-05-11T07:16:37.170Z,16.63
2019-05-11T07:19:04.606Z,16.64
2019-05-11T07:21:32.087Z,16.66
2019-05-11T07:23:59.538Z,16.68
2019-05-11T07:26:27.042Z,16.69
2019-05-11T07:28:54.492Z,16.71
2019-05-11T07:31:22.059Z,16.73
2019-05-11T07:33:49.561Z,16.76
2019-05-11T07:36:17.769Z,16.78
2019-05-11T07:38:45.441Z,16.79
2019-05-11T07:41:12.880Z,16.80
2019-05-11T07:43:40.371Z,16.83
2019-05-11T07:46:07.934Z,16.86
2019-05-11T07:48:35.419Z,16.88
2019-05-11T07:51:02.880Z,16.91
2019-05-11T07:53:30.368Z,16.94
2019-05-11T07:55:57.924Z,16.94
2019-05-11T07:58:25.633Z,16.95
2019-05-11T08:00:53.072Z,16.96
2019-05-11T08:03:20.557Z,16.99
2019-05-11T08:05:48.084Z,16.98
2019-05-11T08:08:17.911Z,17.02
2019-05-11T08:10:44.965Z,17.04
2019-05-11T08:13:12.459Z,17.06
2019-05-11T08:15:39.916Z,17.09
2019-05-11T08:18:08.553Z,17.10
2019-05-11T08:20:38.373Z,17.13
2019-05-11T08:23:05.648Z,17.16
2019-05-11T08:25:33.126Z,17.15
2019-05-11T08:28:00.582Z,17.18
2019-05-11T08:30:28.048Z,17.21
2019-05-11T08:32:58.082Z,17.23
2019-05-11T08:35:30.310Z,17.25
2019-05-11T08:37:54.284Z,17.26
2019-05-11T08:40:21.739Z,17.28
2019-05-11T08:42:49.261Z,17.31
2019-05-11T08:45:23.721Z,17.30
2019-05-11T08:47:48.339Z,17.34
2019-05-11T08:50:15.788Z,17.35
2019-05-11T08:52:44.102Z,17.36
2019-05-11T08:55:11.867Z,17.38
2019-05-11T08:57:39.366Z,17.40
2019-05-11T09:00:08.515Z,17.43
2019-05-11T09:02:38.183Z,17.44
2019-05-11T09:05:07.951Z,17.44
2019-05-11T09:07:34.971Z,17.47
2019-05-11T09:10:02.407Z,17.49
2019-05-11T09:12:29.866Z,17.49
2019-05-11T09:14:58.135Z,17.50
2019-05-11T09:17:25.802Z,17.50
2019-05-11T09:19:53.290Z,17.50
2019-05-11T09:22:20.815Z,17.53
2019-05-11T09:24:48.343Z,17.57
2019-05-11T09:27:18.185Z,17.58
2019-05-11T09:29:45.154Z,17.61
2019-05-11T09:32:12.651Z,17.62
2019-05-11T09:34:40.241Z,17.64
2019-05-11T09:37:08.033Z,17.65
2019-05-11T09:39:35.603Z,17.66
2019-05-11T09:42:03.043Z,17.67
2019-05-11T09:44:30.526Z,17.69
2019-05-11T09:47:01.953Z,17.70
2019-05-11T09:49:43.455Z,17.72
2019-05-11T09:51:58.976Z,17.74
2019-05-11T09:54:26.075Z,17.75
2019-05-11T09:56:53.567Z,17.76
2019-05-11T09:59:21.049Z,17.78
2019-05-11T10:01:48.522Z,17.81
2019-05-11T10:04:18.070Z,17.82
2019-05-11T10:06:45.378Z,17.84
2019-05-11T10:09:13.326Z,17.87
2019-05-11T10:11:40.829Z,17.88
2019-05-11T10:14:08.565Z,17.90
2019-05-11T10:16:38.435Z,17.92
2019-05-11T10:19:05.530Z,17.95
2019-05-11T10:21:33.023Z,17.97
2019-05-11T10:24:00.502Z,18.01
2019-05-11T10:26:28.079Z,18.03
2019-05-11T10:28:55.570Z,18.06
2019-05-11T10:31:23.064Z,18.07
2019-05-11T10:33:50.529Z,18.09
2019-05-11T10:36:18.850Z,18.12
2019-05-11T10:38:48.714Z,18.13
2019-05-11T10:41:18.140Z,18.16
2019-05-11T10:43:45.327Z,18.18
2019-05-11T10:46:19.518Z,18.20
2019-05-11T10:48:42.400Z,18.23
2019-05-11T10:51:09.854Z,18.25
2019-05-11T10:53:38.480Z,18.27
2019-05-11T10:56:08.551Z,18.30
2019-05-11T10:58:37.752Z,18.32
2019-05-11T11:01:04.857Z,18.32
2019-05-11T11:03:32.466Z,18.33
2019-05-11T11:05:59.931Z,18.34
2019-05-11T11:08:27.952Z,18.36
2019-05-11T11:10:55.504Z,18.37
2019-05-11T11:13:22.941Z,18.39
2019-05-11T11:15:50.433Z,18.43
2019-05-11T11:18:18.881Z,18.46
2019-05-11T11:20:48.690Z,18.49
2019-05-11T11:23:17.722Z,18.52
2019-05-11T11:25:45.367Z,18.52
2019-05-11T11:28:12.822Z,18.51
2019-05-11T11:30:40.293Z,18.54
2019-05-11T11:33:08.101Z,18.55
2019-05-11T11:35:35.620Z,18.57
2019-05-11T11:38:03.242Z,18.61
2019-05-11T11:40:30.709Z,18.64
2019-05-11T11:42:58.289Z,18.66
2019-05-11T11:45:25.896Z,18.70
2019-05-11T11:47:53.362Z,18.71
2019-05-11T11:50:20.831Z,18.71
2019-05-11T11:52:48.302Z,18.71
2019-05-11T11:55:15.772Z,18.74
2019-05-11T11:57:43.269Z,18.78
2019-05-11T12:00:10.764Z,18.81
2019-05-11T12:02:38.897Z,18.82
2019-05-11T12:05:08.612Z,18.83
2019-05-11T12:07:35.966Z,18.85
2019-05-11T12:10:03.658Z,18.90
2019-05-11T12:12:31.114Z,18.92
2019-05-11T12:14:58.635Z,18.95
2019-05-11T12:17:28.381Z,18.98
2019-05-11T12:19:55.434Z,18.99
2019-05-11T12:22:22.893Z,19.02
2019-05-11T12:24:53.322Z,19.06
2019-05-11T12:27:20.759Z,19.10
2019-05-11T12:29:48.246Z,19.12
2019-05-11T12:32:22.228Z,19.15
2019-05-11T12:34:49.694Z,19.16
2019-05-11T12:37:17.895Z,19.13
2019-05-11T12:39:47.736Z,19.13
2019-05-11T12:42:15.099Z,19.16
2019-05-11T12:44:42.547Z,19.21
2019-05-11T12:47:21.090Z,19.24
2019-05-11T12:49:39.410Z,19.28
2019-05-11T12:52:07.712Z,19.33
2019-05-11T12:54:35.349Z,19.36
2019-05-11T12:57:02.831Z,19.38
2019-05-11T12:59:30.302Z,19.42
2019-05-11T13:01:59.049Z,19.47
2019-05-11T13:04:28.304Z,19.52
2019-05-11T13:06:57.947Z,19.47
2019-05-11T13:09:25.441Z,19.49
2019-05-11T13:11:52.884Z,19.53
2019-05-11T13:14:20.401Z,19.59
2019-05-11T13:16:48.450Z,19.62
2019-05-11T13:19:17.607Z,19.66
2019-05-11T13:21:45.224Z,19.71
2019-05-11T13:24:12.732Z,19.76
2019-05-11T13:26:40.194Z,19.74
2019-05-11T13:29:07.990Z,19.75
2019-05-11T13:31:35.587Z,19.80
2019-05-11T13:34:03.199Z,19.83
2019-05-11T13:36:30.689Z,19.88
2019-05-11T13:38:58.767Z,19.91
2019-05-11T13:41:28.048Z,19.96
2019-05-11T13:43:57.719Z,19.97
2019-05-11T13:46:25.074Z,19.98
2019-05-11T13:48:52.554Z,20.03
2019-05-11T13:51:20.036Z,20.07
2019-05-11T13:53:48.271Z,20.08
2019-05-11T13:56:18.248Z,20.09
2019-05-11T13:58:45.462Z,20.14
2019-05-11T14:01:12.913Z,20.17
2019-05-11T14:03:40.396Z,20.22
2019-05-11T14:06:08.752Z,20.26
2019-05-11T14:08:38.389Z,20.25
2019-05-11T14:11:05.823Z,20.25
2019-05-11T14:13:33.318Z,20.34
2019-05-11T14:16:00.767Z,20.31
2019-05-11T14:18:28.296Z,20.23
2019-05-11T14:20:55.821Z,20.62
2019-05-11T14:23:23.382Z,21.22
2019-05-11T14:25:50.861Z,21.63
2019-05-11T14:28:18.432Z,21.90
